Time;durP1;ratioP1;P1;durP2;ratioP2;P2;SDS_P1;SDS_P2;PMS_P1;PMS_P2;Temp;Humidity;BMP_temperature;BMP_pressure;BME280_temperature;BME280_humidity;BME280_pressure;Samples;Min_cycle;Max_cycle;Signal;HPM_P1;HPM_P2
2021/04/09 00:02:19;;;;;;;64.40;25.68;;;;;;;0.02;76.53;99517.42;2196909;80;21249;-83
2021/04/09 00:05:21;;;;;;;54.90;24.05;;;;;;;-0.02;76.43;99513.72;2229007;80;21343;-83
2021/04/09 00:08:23;;;;;;;48.92;23.18;;;;;;;-0.03;76.40;99515.11;2229781;80;21280;-83
2021/04/09 00:11:25;;;;;;;48.58;21.82;;;;;;;-0.03;76.45;99521.09;2229339;80;21578;-84
2021/04/09 00:14:27;;;;;;;44.93;20.90;;;;;;;-0.04;76.50;99519.44;2229552;80;21284;-83
2021/04/09 00:17:29;;;;;;;41.55;19.75;;;;;;;-0.08;76.42;99525.70;2229382;80;21175;-84
2021/04/09 00:20:30;;;;;;;41.13;20.12;;;;;;;-0.10;76.43;99534.41;2229566;80;21130;-83
2021/04/09 00:23:32;;;;;;;43.98;21.75;;;;;;;-0.13;76.42;99538.02;2229897;80;21312;-84
2021/04/09 00:26:34;;;;;;;49.03;22.93;;;;;;;-0.14;76.63;99536.82;2229568;80;21122;-85
2021/04/09 00:29:36;;;;;;;55.73;23.25;;;;;;;-0.20;76.68;99531.56;2229356;80;21293;-84
2021/04/09 00:32:38;;;;;;;56.00;23.27;;;;;;;-0.21;76.64;99534.23;2229608;80;21618;-84
2021/04/09 00:35:40;;;;;;;44.00;22.95;;;;;;;-0.23;76.71;99542.05;2229461;80;21296;-84
2021/04/09 00:38:41;;;;;;;51.48;25.95;;;;;;;-0.26;76.71;99542.25;2229508;80;21126;-84
2021/04/09 00:41:43;;;;;;;78.62;33.38;;;;;;;-0.29;76.70;99539.83;2202467;80;21107;-84
2021/04/09 00:44:46;;;;;;;57.58;26.97;;;;;;;-0.29;76.87;99540.66;2229567;80;21115;-84
2021/04/09 00:47:48;;;;;;;56.45;27.20;;;;;;;-0.30;76.87;99539.47;2229725;80;21292;-84
2021/04/09 00:50:50;;;;;;;59.20;26.75;;;;;;;-0.30;76.85;99529.17;2229741;80;21246;-84
2021/04/09 00:53:53;;;;;;;61.37;27.60;;;;;;;-0.29;76.80;99541.95;2229775;80;21165;-84
2021/04/09 00:56:54;;;;;;;62.15;28.67;;;;;;;-0.31;76.92;99535.25;2229738;80;21151;-84
2021/04/09 00:59:56;;;;;;;59.70;28.30;;;;;;;-0.29;76.81;99532.11;2229759;80;21316;-83
2021/04/09 01:02:58;;;;;;;60.55;28.70;;;;;;;-0.27;76.84;99530.73;2228106;80;21326;-83
2021/04/09 01:06:00;;;;;;;57.00;25.75;;;;;;;-0.25;76.79;99532.78;2222256;80;21143;-83
2021/04/09 01:09:02;;;;;;;60.92;27.22;;;;;;;-0.23;76.80;99529.64;2222474;80;21182;-84
2021/04/09 01:12:04;;;;;;;59.13;25.70;;;;;;;-0.23;76.78;99533.05;2222343;80;21292;-83
2021/04/09 01:15:06;;;;;;;52.27;26.82;;;;;;;-0.22;76.75;99530.02;2222548;80;21340;-83
2021/04/09 01:18:08;;;;;;;62.08;28.35;;;;;;;-0.22;76.71;99523.11;2222347;80;22204;-84
2021/04/09 01:21:09;;;;;;;59.08;28.92;;;;;;;-0.22;76.69;99521.00;2222866;80;21277;-84
2021/04/09 01:24:13;;;;;;;77.82;33.18;;;;;;;-0.20;76.66;99532.03;2222092;80;21100;-84
2021/04/09 01:27:14;;;;;;;60.90;28.52;;;;;;;-0.20;76.63;99532.86;2222399;80;21289;-84
2021/04/09 01:30:17;;;;;;;51.90;23.73;;;;;;;-0.19;76.58;99531.93;2222066;80;21178;-84
2021/04/09 01:33:18;;;;;;;55.78;26.42;;;;;;;-0.24;76.49;99538.29;2222745;80;21717;-83
2021/04/09 01:36:20;;;;;;;56.15;25.25;;;;;;;-0.27;76.56;99527.73;2222249;80;21285;-84
2021/04/09 01:39:22;;;;;;;58.52;26.68;;;;;;;-0.26;76.55;99528.09;2222303;80;21154;-84
2021/04/09 01:42:24;;;;;;;64.25;28.98;;;;;;;-0.26;76.57;99533.23;2222201;80;21170;-83
2021/04/09 01:45:26;;;;;;;54.15;26.60;;;;;;;-0.26;76.54;99528.09;2222576;80;21190;-84
2021/04/09 01:48:27;;;;;;;58.40;27.90;;;;;;;-0.27;76.52;99526.44;2222535;80;21717;-83
2021/04/09 01:51:29;;;;;;;63.85;28.52;;;;;;;-0.29;76.55;99525.68;2222274;80;21310;-83
2021/04/09 01:54:33;;;;;;;62.58;26.85;;;;;;;-0.31;76.59;99520.63;2222252;80;21134;-83
2021/04/09 01:57:35;;;;;;;56.15;28.45;;;;;;;-0.33;76.53;99526.33;2222559;80;21305;-84
2021/04/09 02:00:37;;;;;;;55.15;27.30;;;;;;;-0.34;76.56;99522.57;2222433;80;21151;-83
2021/04/09 02:03:39;;;;;;;63.83;29.15;;;;;;;-0.34;76.53;99521.28;2222305;80;21154;-84
2021/04/09 02:06:41;;;;;;;66.92;29.32;;;;;;;-0.35;76.59;99521.74;2222200;80;21186;-84
2021/04/09 02:09:42;;;;;;;55.73;29.77;;;;;;;-0.36;76.53;99523.13;2222301;80;21303;-83
2021/04/09 02:12:44;;;;;;;59.88;29.00;;;;;;;-0.37;76.50;99518.87;2222324;80;21579;-82
2021/04/09 02:15:46;;;;;;;65.50;31.37;;;;;;;-0.38;76.55;99511.61;2222283;80;21582;-84
2021/04/09 02:18:47;;;;;;;69.15;31.93;;;;;;;-0.40;76.58;99520.34;2222364;80;21281;-84
2021/04/09 02:21:49;;;;;;;74.95;32.23;;;;;;;-0.43;76.61;99510.25;2222286;80;21127;-84
2021/04/09 02:24:51;;;;;;;65.70;32.15;;;;;;;-0.43;76.67;99516.68;2222516;80;21139;-84
2021/04/09 02:27:53;;;;;;;78.15;35.38;;;;;;;-0.44;76.73;99518.42;2222599;80;21147;-84
2021/04/09 02:31:05;;;;;;;72.92;34.90;;;;;;;-0.47;76.69;99516.02;2222402;80;21736;-83
2021/04/09 02:34:06;;;;;;;76.92;36.53;;;;;;;-0.50;76.68;99519.23;2222364;80;21316;-83
2021/04/09 02:37:09;;;;;;;76.97;35.98;;;;;;;-0.51;76.80;99522.73;2222003;80;21170;-83
2021/04/09 02:40:10;;;;;;;83.33;38.40;;;;;;;-0.52;76.87;99512.91;2222302;80;21359;-83
2021/04/09 02:43:12;;;;;;;77.03;38.35;;;;;;;-0.51;76.90;99517.59;2222637;80;21289;-84
2021/04/09 02:46:14;;;;;;;79.45;38.38;;;;;;;-0.52;76.91;99509.50;2222299;80;21158;-83
2021/04/09 02:49:16;;;;;;;84.83;38.67;;;;;;;-0.55;76.92;99515.63;2222190;80;21166;-83
2021/04/09 02:52:18;;;;;;;81.75;38.55;;;;;;;-0.54;77.06;99512.63;2222361;80;21183;-84
2021/04/09 02:55:20;;;;;;;83.30;42.40;;;;;;;-0.55;76.99;99514.80;2222137;80;21312;-83
2021/04/09 02:58:22;;;;;;;88.65;42.65;;;;;;;-0.58;77.09;99510.22;2222325;80;21107;-83
2021/04/09 03:01:23;;;;;;;89.47;41.20;;;;;;;-0.59;77.11;99507.73;2222139;80;21139;-83
2021/04/09 03:04:26;;;;;;;96.90;43.58;;;;;;;-0.60;77.13;99508.66;2222030;80;21112;-83
2021/04/09 03:07:28;;;;;;;91.78;41.45;;;;;;;-0.62;77.27;99507.47;2222128;80;22214;-83
2021/04/09 03:10:29;;;;;;;85.75;41.73;;;;;;;-0.62;77.26;99505.36;2222180;80;21112;-83
2021/04/09 03:13:31;;;;;;;87.45;41.85;;;;;;;-0.65;77.26;99513.23;2222274;80;21574;-83
2021/04/09 03:16:32;;;;;;;90.22;40.92;;;;;;;-0.66;77.38;99513.69;2222358;80;21143;-82
2021/04/09 03:19:34;;;;;;;78.07;39.88;;;;;;;-0.66;77.30;99509.83;2222476;80;21321;-83
2021/04/09 03:22:36;;;;;;;79.27;39.27;;;;;;;-0.67;77.36;99511.21;2222371;80;21147;-84
2021/04/09 03:25:38;;;;;;;84.55;42.48;;;;;;;-0.68;77.29;99512.13;2221904;80;21194;-84
2021/04/09 03:28:39;;;;;;;85.42;41.10;;;;;;;-0.71;77.34;99515.72;2222109;80;21143;-84
2021/04/09 03:31:41;;;;;;;76.45;38.48;;;;;;;-0.71;77.39;99513.61;2222250;80;21312;-84
2021/04/09 03:34:43;;;;;;;84.45;40.43;;;;;;;-0.71;77.35;99510.58;2222393;80;21285;-84
2021/04/09 03:37:45;;;;;;;80.90;38.05;;;;;;;-0.71;77.35;99504.61;2222148;80;21136;-84
2021/04/09 03:40:47;;;;;;;76.07;39.45;;;;;;;-0.72;77.32;99504.24;2222450;80;21308;-84
2021/04/09 03:43:49;;;;;;;81.42;40.98;;;;;;;-0.73;77.29;99499.56;2222564;80;21300;-83
2021/04/09 03:46:51;;;;;;;77.55;39.25;;;;;;;-0.75;77.29;99501.83;2222140;80;21170;-84
2021/04/09 03:49:52;;;;;;;75.72;37.93;;;;;;;-0.75;77.33;99503.94;2222268;80;21167;-84
2021/04/09 03:52:54;;;;;;;73.90;36.93;;;;;;;-0.79;77.28;99493.94;2222128;80;21749;-84
2021/04/09 03:55:56;;;;;;;74.37;36.88;;;;;;;-0.79;77.32;99499.90;2222234;80;21198;-83
2021/04/09 03:58:58;;;;;;;73.02;37.08;;;;;;;-0.77;77.31;99503.20;2222401;80;21309;-84
2021/04/09 04:01:59;;;;;;;76.37;36.93;;;;;;;-0.77;77.22;99505.78;2222002;80;21276;-84
2021/04/09 04:05:01;;;;;;;72.17;37.55;;;;;;;-0.76;77.24;99497.14;2219621;80;21296;-84
2021/04/09 04:08:03;;;;;;;83.82;38.35;;;;;;;-0.75;77.19;99496.22;2218108;80;21631;-84
2021/04/09 04:11:04;;;;;;;75.35;40.45;;;;;;;-0.71;77.14;99500.75;2218148;80;21115;-86
2021/04/09 04:14:06;;;;;;;73.60;37.67;;;;;;;-0.66;77.04;99496.15;2218370;80;21131;-85
2021/04/09 04:17:07;;;;;;;73.60;38.63;;;;;;;-0.56;77.00;99495.97;2218340;80;21154;-85
2021/04/09 04:20:09;;;;;;;67.82;36.23;;;;;;;-0.44;76.91;99497.02;2218155;80;21138;-85
2021/04/09 04:23:11;;;;;;;68.87;35.43;;;;;;;-0.30;76.72;99491.86;2218457;80;21586;-85
2021/04/09 04:26:12;;;;;;;68.85;36.95;;;;;;;-0.13;76.61;99485.70;2218129;80;21321;-85
2021/04/09 04:29:14;;;;;;;59.27;31.80;;;;;;;0.05;76.39;99491.47;2218241;80;21155;-86
2021/04/09 04:32:16;;;;;;;62.13;32.80;;;;;;;0.23;76.14;99488.59;2218193;80;21603;-85
2021/04/09 04:35:18;;;;;;;52.90;30.97;;;;;;;0.42;75.87;99495.17;2218229;80;21194;-85
2021/04/09 04:38:20;;;;;;;54.60;29.52;;;;;;;0.61;75.57;99492.25;2217959;80;21190;-85
2021/04/09 04:41:22;;;;;;;55.28;28.62;;;;;;;0.81;75.37;99492.62;2217880;80;21150;-85
2021/04/09 04:44:23;;;;;;;52.75;26.20;;;;;;;1.04;74.94;99491.61;2218290;80;21535;-85
2021/04/09 04:47:25;;;;;;;52.53;29.00;;;;;;;1.20;74.80;99487.56;2218362;80;21261;-85
2021/04/09 04:50:27;;;;;;;45.15;27.07;;;;;;;1.40;74.50;99487.89;2218128;80;21614;-86
2021/04/09 04:53:29;;;;;;;47.33;27.77;;;;;;;1.58;74.21;99490.98;2218045;80;21289;-85
2021/04/09 04:56:30;;;;;;;53.28;29.15;;;;;;;1.81;74.08;99491.16;2218143;80;21604;-85
2021/04/09 04:59:32;;;;;;;50.90;28.57;;;;;;;1.98;73.71;99492.13;2217851;80;21642;-85
2021/04/09 05:02:34;;;;;;;41.90;24.43;;;;;;;2.18;73.43;99485.09;2218290;80;21171;-85
2021/04/09 05:05:36;;;;;;;39.15;23.92;;;;;;;2.39;72.95;99486.66;2217996;80;21329;-85
2021/04/09 05:08:38;;;;;;;47.55;24.77;;;;;;;2.57;72.89;99485.81;2218135;80;21281;-85
2021/04/09 05:11:39;;;;;;;43.17;25.12;;;;;;;2.76;72.71;99500.36;2218214;80;21727;-84
2021/04/09 05:14:41;;;;;;;34.43;20.55;;;;;;;2.95;72.28;99493.38;2218116;80;21273;-85
2021/04/09 05:17:43;;;;;;;33.63;21.00;;;;;;;3.16;71.57;99481.09;2218255;80;21308;-86
2021/04/09 05:20:45;;;;;;;39.08;21.48;;;;;;;3.32;71.16;99488.89;2218115;80;21655;-84
2021/04/09 05:23:46;;;;;;;35.03;20.97;;;;;;;3.50;71.13;99489.75;2218039;80;21663;-86
2021/04/09 05:26:48;;;;;;;28.27;18.32;;;;;;;3.66;70.10;99482.00;2218426;80;21166;-86
2021/04/09 05:29:49;;;;;;;31.10;19.50;;;;;;;3.80;70.21;99481.41;2218299;80;21717;-86
2021/04/09 05:32:51;;;;;;;36.55;18.67;;;;;;;3.95;69.76;99484.13;2218289;80;21134;-85
2021/04/09 05:35:53;;;;;;;32.45;18.87;;;;;;;4.13;69.10;99486.58;2218027;80;21286;-86
2021/04/09 05:38:55;;;;;;;54.93;26.60;;;;;;;4.22;68.64;99479.85;2218428;80;21594;-86
2021/04/09 05:45:49;;;;;;;28.98;19.15;;;;;;;4.52;68.16;99489.56;2218576;80;21685;-86
2021/04/09 05:48:50;;;;;;;31.77;19.80;;;;;;;4.60;66.69;99477.28;2218175;80;21305;-85
2021/04/09 05:51:53;;;;;;;27.73;16.50;;;;;;;4.69;67.60;99487.75;2218511;80;21618;-85
2021/04/09 05:54:55;;;;;;;35.08;18.17;;;;;;;4.75;66.39;99478.15;2218689;80;21269;-85
2021/04/09 05:57:57;;;;;;;41.50;22.93;;;;;;;4.77;66.11;99477.58;2219210;80;21285;-84
2021/04/09 06:00:59;;;;;;;51.05;26.35;;;;;;;4.83;66.56;99484.02;2219682;80;21186;-85
2021/04/09 06:04:01;;;;;;;37.35;19.82;;;;;;;4.87;65.49;99482.02;2219388;80;21298;-83
2021/04/09 06:07:06;;;;;;;32.45;20.43;;;;;;;4.91;66.46;99480.81;2219319;80;21250;-87
2021/04/09 06:10:11;;;;;;;25.62;16.00;;;;;;;4.94;65.92;99476.66;2219465;80;21190;-86
2021/04/09 06:13:12;;;;;;;22.77;14.73;;;;;;;5.01;66.09;99478.62;2219695;80;21341;-85
2021/04/09 06:16:14;;;;;;;19.17;13.25;;;;;;;5.10;65.57;99477.05;2220069;80;21706;-85
2021/04/09 06:19:16;;;;;;;30.65;18.05;;;;;;;5.16;64.68;99473.97;2219670;80;21301;-87
2021/04/09 06:22:18;;;;;;;28.92;17.32;;;;;;;5.22;64.47;99468.75;2219121;80;21313;-87
2021/04/09 06:25:21;;;;;;;26.17;15.48;;;;;;;5.25;64.55;99466.71;2219425;80;21686;-86
2021/04/09 06:28:25;;;;;;;21.65;13.78;;;;;;;5.32;64.77;99464.44;2219292;80;21297;-87
2021/04/09 06:35:11;;;;;;;;;;;;;;;;;;;;;
2021/04/09 06:38:21;;;;;;;18.57;11.78;;;;;;;5.50;63.29;99456.41;2218311;80;21136;-87
2021/04/09 06:44:51;;;;;;;19.57;12.30;;;;;;;5.67;63.35;99453.69;2210677;80;21166;-88
2021/04/09 06:47:57;;;;;;;15.45;11.18;;;;;;;5.76;61.78;99458.55;2217616;80;21142;-89
2021/04/09 06:51:11;;;;;;;19.70;10.70;;;;;;;5.83;62.23;99457.08;2219907;80;21163;-88
2021/04/09 06:54:05;;;;;;;16.97;10.20;;;;;;;5.90;62.56;99458.20;2061448;86;21606;-84
2021/04/09 06:57:11;;;;;;;17.25;9.68;;;;;;;5.97;61.43;99456.77;2063662;86;21263;-86
2021/04/09 07:18:22;;;;;;;22.90;12.57;;;;;;;6.64;60.32;99451.33;2110671;84;21229;-89
2021/04/09 07:21:24;;;;;;;9.45;7.30;;;;;;;6.71;59.96;99444.63;2086164;85;21651;-88
2021/04/09 07:28:21;;;;;;;8.20;6.20;;;;;;;6.88;58.31;99425.72;2023090;88;21206;-88
2021/04/09 07:31:22;;;;;;;5.72;4.65;;;;;;;7.02;58.96;99427.88;2025451;88;21376;-89
2021/04/09 07:34:25;;;;;;;9.15;4.50;;;;;;;7.11;57.39;99415.80;2025971;88;21835;-88
2021/04/09 07:41:08;;;;;;;8.23;4.55;;;;;;;7.23;56.33;99416.48;1870811;95;21191;-86
2021/04/09 07:44:11;;;;;;;6.28;5.65;;;;;;;7.30;57.24;99410.55;1946265;92;21639;-87
2021/04/09 08:16:41;;;;;;;11.63;6.08;;;;;;;7.75;51.07;99376.42;2209215;78;21195;-93
2021/04/09 08:23:23;;;;;;;7.72;4.58;;;;;;;7.76;51.38;99387.19;2271593;78;21119;-88
2021/04/09 08:26:36;;;;;;;;;;;;;;;;;;;;;
2021/04/09 08:36:31;;;;;;;8.00;4.92;;;;;;;8.07;49.99;99374.19;2258150;77;24110;-87
2021/04/09 08:39:38;;;;;;;10.20;6.37;;;;;;;8.07;48.97;99365.06;2247196;79;21634;-85
2021/04/09 08:46:23;;;;;;;7.85;5.42;;;;;;;8.17;47.60;99354.08;2223386;79;21171;-84
2021/04/09 08:49:25;;;;;;;8.30;4.67;;;;;;;8.20;48.37;99352.46;2262956;79;21299;-90
2021/04/09 08:52:36;;;;;;;8.68;5.72;;;;;;;8.26;46.96;99357.58;2262222;79;21167;-85
2021/04/09 08:59:19;;;;;;;13.60;6.35;;;;;;;8.33;48.56;99339.55;2128465;79;21135;-84
2021/04/09 09:02:24;;;;;;;10.88;5.37;;;;;;;8.40;48.10;99339.29;2262668;79;21309;-83
2021/04/09 09:05:30;;;;;;;9.60;6.05;;;;;;;8.43;48.25;99328.09;2262238;79;21294;-85
2021/04/09 09:08:43;;;;;;;;;;;;;;;;;;;;;
2021/04/09 09:11:54;;;;;;;19.98;9.73;;;;;;;8.60;47.64;99324.30;2262684;79;21297;-83
2021/04/09 09:14:56;;;;;;;17.20;8.95;;;;;;;8.68;47.92;99321.23;2263036;79;21128;-83
2021/04/09 09:17:59;;;;;;;16.20;7.60;;;;;;;8.74;47.19;99322.43;2263329;79;21301;-84
2021/04/09 09:21:01;;;;;;;11.10;7.10;;;;;;;8.79;46.08;99317.59;2263304;79;21289;-83
2021/04/09 09:24:03;;;;;;;13.18;7.75;;;;;;;8.77;46.32;99316.89;2262829;79;21753;-85
2021/04/09 09:27:05;;;;;;;9.63;6.60;;;;;;;8.77;45.60;99306.45;2263096;79;21680;-84
2021/04/09 09:30:07;;;;;;;10.58;6.80;;;;;;;8.81;46.48;99311.72;2263120;79;21123;-84
2021/04/09 09:33:25;;;;;;;12.33;8.88;;;;;;;8.88;46.18;99310.62;2262979;79;21773;-86
2021/04/09 09:36:27;;;;;;;13.93;8.43;;;;;;;8.91;46.02;99299.37;2250687;79;21148;-85
2021/04/09 09:39:29;;;;;;;7.58;6.67;;;;;;;8.94;46.29;99304.77;2249288;79;21135;-85
2021/04/09 09:42:46;;;;;;;12.37;7.03;;;;;;;8.98;46.07;99299.58;2249544;79;21282;-82
2021/04/09 09:46:00;;;;;;;9.30;6.67;;;;;;;9.00;45.88;99293.22;2236596;79;21160;-84
2021/04/09 09:49:02;;;;;;;9.75;7.05;;;;;;;9.04;45.27;99273.63;2248573;79;21311;-84
2021/04/09 09:52:06;;;;;;;11.60;6.83;;;;;;;9.03;45.28;99277.22;2246514;79;21132;-83
2021/04/09 09:55:08;;;;;;;9.78;7.20;;;;;;;9.10;46.46;99273.02;2248095;79;21123;-84
2021/04/09 09:58:11;;;;;;;28.87;14.90;;;;;;;9.13;45.58;99272.70;2245361;79;21151;-82
2021/04/09 10:01:13;;;;;;;12.53;7.75;;;;;;;9.18;45.35;99269.63;2248473;79;21167;-84
2021/04/09 10:04:17;;;;;;;9.78;6.78;;;;;;;9.25;45.82;99265.91;2248555;79;21152;-86
2021/04/09 10:07:20;;;;;;;6.30;5.45;;;;;;;9.29;45.34;99259.38;2248298;79;21124;-86
2021/04/09 10:10:22;;;;;;;5.28;4.60;;;;;;;9.32;44.96;99252.52;2223264;78;21129;-85
2021/04/09 10:13:23;;;;;;;6.25;5.65;;;;;;;9.34;45.32;99239.64;2253321;78;21321;-84
2021/04/09 10:16:28;;;;;;;7.17;5.45;;;;;;;9.37;44.74;99243.23;2257838;78;21114;-82
2021/04/09 10:19:29;;;;;;;5.70;4.95;;;;;;;9.44;45.22;99235.59;2208767;81;21256;-84
2021/04/09 10:22:31;;;;;;;8.73;6.20;;;;;;;9.53;45.51;99230.70;2208816;81;21264;-86
2021/04/09 10:25:32;;;;;;;8.68;5.17;;;;;;;9.60;44.98;99233.02;2208708;81;21305;-80
2021/04/09 10:28:34;;;;;;;12.47;7.22;;;;;;;9.66;45.08;99223.69;2208028;81;21181;-82
2021/04/09 10:31:35;;;;;;;11.08;6.53;;;;;;;9.72;44.45;99212.59;2208754;81;21688;-86
2021/04/09 10:34:43;;;;;;;7.55;4.92;;;;;;;9.77;44.56;99217.33;2208724;79;21336;-85
2021/04/09 10:37:44;;;;;;;7.97;5.58;;;;;;;9.80;44.05;99211.30;2208644;80;21760;-85
2021/04/09 10:40:46;;;;;;;7.95;5.42;;;;;;;9.84;43.99;99209.17;2209164;81;21316;-85
2021/04/09 10:43:49;;;;;;;7.85;5.50;;;;;;;9.93;44.60;99206.89;2208913;81;21185;-83
2021/04/09 10:46:51;;;;;;;7.60;5.87;;;;;;;10.02;44.18;99199.86;2208800;81;21280;-84
2021/04/09 10:49:52;;;;;;;6.12;5.22;;;;;;;10.07;44.33;99191.85;2208862;81;21138;-82
2021/04/09 10:52:54;;;;;;;9.70;7.10;;;;;;;10.11;43.91;99197.56;2208716;81;21303;-84
2021/04/09 10:55:56;;;;;;;6.05;5.10;;;;;;;10.31;45.34;99195.44;2208536;81;21296;-84
2021/04/09 10:58:58;;;;;;;8.53;5.25;;;;;;;10.61;45.15;99184.27;2208214;81;21272;-83
2021/04/09 11:02:00;;;;;;;9.50;5.20;;;;;;;10.83;45.10;99182.22;2185989;81;21300;-81
2021/04/09 11:05:02;;;;;;;5.85;5.30;;;;;;;11.03;44.13;99176.56;2186128;81;21252;-81
2021/04/09 11:08:04;;;;;;;5.25;4.75;;;;;;;11.26;43.93;99177.44;2207815;81;22115;-82
2021/04/09 11:11:06;;;;;;;4.85;4.35;;;;;;;11.39;42.20;99176.37;2207899;81;21641;-82
2021/04/09 11:14:07;;;;;;;9.93;5.12;;;;;;;11.42;43.21;99170.45;2208229;81;21165;-90
2021/04/09 11:17:11;;;;;;;9.85;6.95;;;;;;;11.49;42.41;99163.03;2208095;81;21142;-82
2021/04/09 11:20:13;;;;;;;6.10;4.47;;;;;;;11.54;42.36;99165.14;2207924;81;21712;-81
2021/04/09 11:23:15;;;;;;;4.37;3.98;;;;;;;11.68;42.31;99167.81;2208071;81;21281;-81
2021/04/09 11:26:17;;;;;;;10.18;5.83;;;;;;;11.74;42.04;99155.81;2207989;81;21165;-81
2021/04/09 11:29:19;;;;;;;5.40;4.25;;;;;;;11.80;40.78;99159.58;2207922;81;21724;-82
2021/04/09 11:32:22;;;;;;;11.08;6.12;;;;;;;11.88;40.89;99155.55;2208742;81;21146;-84
2021/04/09 11:35:24;;;;;;;14.68;8.30;;;;;;;11.87;39.27;99150.80;2219498;80;21291;-83
2021/04/09 11:38:26;;;;;;;7.10;5.17;;;;;;;11.84;40.85;99142.48;2236654;80;21319;-83
2021/04/09 11:41:27;;;;;;;8.98;5.12;;;;;;;11.84;40.84;99140.67;2236496;80;21232;-84
2021/04/09 11:44:29;;;;;;;8.00;5.65;;;;;;;11.90;40.70;99143.91;2236430;80;21314;-83
2021/04/09 11:47:31;;;;;;;13.43;7.47;;;;;;;11.99;40.24;99126.28;2236689;80;21251;-84
2021/04/09 11:50:33;;;;;;;11.78;6.50;;;;;;;12.06;40.55;99125.86;2236936;80;21304;-82
2021/04/09 11:53:34;;;;;;;9.43;6.40;;;;;;;12.09;39.45;99123.40;2236936;80;21296;-85
2021/04/09 11:56:36;;;;;;;6.10;4.15;;;;;;;12.26;39.66;99110.42;2208467;80;21288;-85
2021/04/09 11:59:38;;;;;;;11.38;4.78;;;;;;;12.26;39.66;99110.42;2237027;80;21165;-83
2021/04/09 12:02:40;;;;;;;6.60;5.37;;;;;;;12.33;38.88;99121.81;2235854;80;21648;-86
2021/04/09 12:05:42;;;;;;;5.65;4.67;;;;;;;12.39;39.09;99117.16;2236082;80;21164;-89
2021/04/09 12:08:44;;;;;;;10.00;5.75;;;;;;;12.47;38.64;99116.26;2236557;80;21303;-87
2021/04/09 12:11:45;;;;;;;9.80;6.30;;;;;;;12.51;38.23;99109.63;2236006;80;21144;-87
2021/04/09 12:14:47;;;;;;;7.85;5.70;;;;;;;12.52;39.00;99098.12;2235637;80;21279;-87
2021/04/09 12:17:49;;;;;;;4.97;3.90;;;;;;;12.52;39.00;99098.12;2236049;80;21736;-88
2021/04/09 12:20:51;;;;;;;6.25;4.30;;;;;;;12.52;38.34;99087.13;2236037;80;21267;-88
2021/04/09 12:23:53;;;;;;;7.50;4.67;;;;;;;12.54;38.37;99085.66;2235665;80;21135;-88
2021/04/09 12:26:55;;;;;;;6.42;4.35;;;;;;;12.49;38.02;99070.42;2235586;80;21319;-86
2021/04/09 12:29:57;;;;;;;6.12;4.00;;;;;;;12.49;38.02;99070.42;2236059;80;21300;-85
2021/04/09 12:32:59;;;;;;;12.73;8.28;;;;;;;12.52;38.41;99076.61;2235952;80;21308;-84
2021/04/09 12:36:00;;;;;;;10.78;5.58;;;;;;;12.45;38.64;99068.36;2227777;80;21303;-87
2021/04/09 12:39:03;;;;;;;7.78;4.37;;;;;;;12.40;37.89;99064.95;2219573;80;21170;-84
2021/04/09 12:42:05;;;;;;;7.10;4.60;;;;;;;12.35;37.25;99058.14;2219475;80;21298;-83
2021/04/09 12:45:06;;;;;;;7.62;5.28;;;;;;;12.33;38.05;99050.92;2219516;80;21209;-83
2021/04/09 12:48:08;;;;;;;9.80;6.20;;;;;;;12.32;38.75;99053.23;2219625;80;21177;-83
2021/04/09 12:51:10;;;;;;;12.28;8.55;;;;;;;12.36;38.53;99049.27;2220019;80;21604;-80
2021/04/09 12:54:12;;;;;;;12.10;9.05;;;;;;;12.32;37.56;99042.73;2219417;80;21312;-83
2021/04/09 12:57:13;;;;;;;11.00;7.17;;;;;;;12.25;37.73;99041.83;2219602;80;21720;-82
2021/04/09 13:00:15;;;;;;;19.92;13.58;;;;;;;12.21;37.34;99035.32;2219667;80;21704;-82
2021/04/09 13:03:17;;;;;;;16.45;13.25;;;;;;;12.16;37.46;99028.48;2219806;80;21138;-79
2021/04/09 13:06:19;;;;;;;9.73;7.03;;;;;;;12.13;38.44;99025.72;2219776;80;21141;-82
2021/04/09 13:09:22;;;;;;;9.63;5.87;;;;;;;12.15;38.68;99032.10;2219539;80;21300;-82
2021/04/09 13:12:25;;;;;;;5.92;4.35;;;;;;;12.16;38.69;99026.70;2219484;80;21157;-82
2021/04/09 13:15:27;;;;;;;13.10;8.83;;;;;;;12.15;38.66;99017.66;2219847;80;21312;-83
2021/04/09 13:18:30;;;;;;;11.28;7.05;;;;;;;12.14;38.70;99016.04;2219751;80;21272;-82
2021/04/09 13:21:31;;;;;;;12.20;7.50;;;;;;;12.15;38.53;99009.29;2219802;80;21569;-82
2021/04/09 13:24:33;;;;;;;8.95;6.28;;;;;;;12.15;38.59;99022.91;2219432;80;21280;-83
2021/04/09 13:27:37;;;;;;;6.90;4.45;;;;;;;12.11;38.54;99013.78;2219321;80;21137;-85
2021/04/09 13:30:41;;;;;;;5.65;5.00;;;;;;;12.07;37.79;99006.78;2219219;80;21173;-84
2021/04/09 13:33:43;;;;;;;4.28;3.87;;;;;;;12.08;38.93;99008.91;2219649;80;21806;-83
2021/04/09 13:36:45;;;;;;;5.08;4.15;;;;;;;12.05;37.58;99007.44;2219930;80;21190;-84
2021/04/09 13:39:47;;;;;;;6.33;4.92;;;;;;;11.98;37.94;99007.88;2219889;80;21268;-83
2021/04/09 13:42:48;;;;;;;7.85;5.90;;;;;;;11.91;37.78;99005.65;2219976;80;21536;-89
2021/04/09 13:45:50;;;;;;;5.33;4.75;;;;;;;11.88;37.92;98998.12;2219922;80;21702;-84
2021/04/09 13:48:52;;;;;;;5.65;4.50;;;;;;;11.88;38.38;98996.81;2219386;80;21275;-84
2021/04/09 13:51:54;;;;;;;9.18;5.92;;;;;;;11.93;38.39;98990.03;2219447;80;21300;-83
2021/04/09 13:54:56;;;;;;;7.83;5.20;;;;;;;11.96;39.14;98984.41;2219588;80;21335;-83
2021/04/09 13:57:58;;;;;;;5.30;3.60;;;;;;;11.98;38.72;98986.88;2219937;80;21308;-85
2021/04/09 14:00:59;;;;;;;7.35;5.95;;;;;;;11.99;38.54;98977.20;2219799;80;21252;-84
2021/04/09 14:04:02;;;;;;;11.70;7.42;;;;;;;11.98;38.41;98984.26;2219835;80;21705;-83
2021/04/09 14:07:04;;;;;;;7.28;5.25;;;;;;;11.95;37.57;98977.54;2219498;80;21719;-83
2021/04/09 14:10:09;;;;;;;8.30;5.03;;;;;;;11.94;37.40;98969.85;2219535;80;21295;-83
2021/04/09 14:13:11;;;;;;;10.43;6.67;;;;;;;11.88;36.68;98977.13;2220028;80;21717;-83
2021/04/09 14:16:12;;;;;;;14.07;8.30;;;;;;;11.84;37.54;98976.69;2219662;80;21772;-82
2021/04/09 14:19:14;;;;;;;8.08;5.15;;;;;;;11.81;38.16;98968.38;2219947;80;21178;-81
2021/04/09 14:22:16;;;;;;;9.65;5.40;;;;;;;11.75;36.63;98965.13;2219906;80;21170;-82
2021/04/09 14:25:18;;;;;;;10.40;7.47;;;;;;;11.68;36.87;98954.03;2219554;80;21310;-83
2021/04/09 14:28:22;;;;;;;11.68;7.75;;;;;;;11.63;38.22;98959.02;2219764;80;21280;-83
2021/04/09 14:31:24;;;;;;;8.68;5.90;;;;;;;11.64;37.97;98950.66;2219641;80;21320;-84
2021/04/09 14:34:26;;;;;;;7.37;6.08;;;;;;;11.61;37.25;98954.92;2219636;80;21141;-84
2021/04/09 14:37:27;;;;;;;11.25;7.08;;;;;;;11.54;37.59;98949.61;2210553;80;21284;-83
2021/04/09 14:40:30;;;;;;;8.80;6.15;;;;;;;11.47;37.36;98950.00;2207908;81;21264;-84
2021/04/09 14:43:32;;;;;;;8.03;6.67;;;;;;;11.42;37.22;98942.34;2208463;81;21828;-84
2021/04/09 14:46:34;;;;;;;9.88;5.78;;;;;;;11.40;37.33;98946.46;2208432;81;21280;-85
2021/04/09 14:49:36;;;;;;;16.55;8.75;;;;;;;11.43;37.79;98953.99;2208273;81;21296;-85
2021/04/09 14:52:37;;;;;;;10.48;4.90;;;;;;;11.38;37.50;98947.14;2208272;81;21279;-85
2021/04/09 14:55:39;;;;;;;8.75;5.40;;;;;;;11.28;37.06;98936.92;2208225;81;21276;-83
2021/04/09 14:58:41;;;;;;;7.28;5.42;;;;;;;11.23;37.60;98949.73;2208070;81;21142;-84
2021/04/09 15:01:43;;;;;;;6.90;4.87;;;;;;;11.20;37.69;98937.48;2208294;81;21142;-79
2021/04/09 15:04:45;;;;;;;5.95;5.05;;;;;;;11.14;37.50;98935.06;2208085;81;21304;-79
2021/04/09 15:07:47;;;;;;;10.53;5.00;;;;;;;11.08;38.02;98939.23;2208202;81;21177;-81
2021/04/09 15:10:48;;;;;;;7.97;5.55;;;;;;;11.03;38.40;98935.00;2207972;81;21154;-80
2021/04/09 15:13:50;;;;;;;5.58;4.28;;;;;;;10.97;38.03;98925.25;2207792;81;21625;-78
2021/04/09 15:16:52;;;;;;;4.60;4.10;;;;;;;10.93;38.30;98925.27;2208194;81;21300;-80
2021/04/09 15:19:54;;;;;;;7.65;5.30;;;;;;;10.93;38.34;98918.72;2207851;81;21154;-80
2021/04/09 15:22:56;;;;;;;6.60;4.60;;;;;;;10.95;38.29;98915.42;2208054;81;21335;-80
2021/04/09 15:25:58;;;;;;;14.30;8.30;;;;;;;10.98;37.96;98915.08;2208124;81;21170;-79
2021/04/09 15:29:00;;;;;;;10.70;6.90;;;;;;;10.98;38.48;98912.96;2207934;81;21292;-81
2021/04/09 15:32:01;;;;;;;7.67;4.92;;;;;;;10.95;38.27;98904.13;2208158;81;21150;-81
2021/04/09 15:35:03;;;;;;;6.58;4.60;;;;;;;10.90;38.34;98905.17;2207945;81;21158;-82
2021/04/09 15:38:05;;;;;;;9.70;4.40;;;;;;;10.84;38.21;98904.06;2207727;79;21119;-81
2021/04/09 15:41:07;;;;;;;11.18;5.40;;;;;;;10.79;38.59;98902.48;2208148;81;21316;-80